sensor_id;sensor_type;location;lat;lon;timestamp;P1;durP1;ratioP1;P2;durP2;ratioP2
35442;SDS011;21561;55.654;37.592;2024-01-27T00:00:28;41.42;;;20.15;;
35442;SDS011;21561;55.654;37.592;2024-01-27T00:02:55;40.63;;;19.90;;
35442;SDS011;21561;55.654;37.592;2024-01-27T00:05:22;38.70;;;18.63;;
35442;SDS011;21561;55.654;37.592;2024-01-27T00:07:52;39.20;;;18.90;;
35442;SDS011;21561;55.654;37.592;2024-01-27T00:10:19;38.13;;;18.88;;
35442;SDS011;21561;55.654;37.592;2024-01-27T00:12:46;40.50;;;20.00;;
35442;SDS011;21561;55.654;37.592;2024-01-27T00:15:12;42.00;;;20.00;;
35442;SDS011;21561;55.654;37.592;2024-01-27T00:17:40;37.58;;;19.17;;
35442;SDS011;21561;55.654;37.592;2024-01-27T00:20:07;40.60;;;20.85;;
35442;SDS011;21561;55.654;37.592;2024-01-27T00:22:34;40.97;;;20.60;;
35442;SDS011;21561;55.654;37.592;2024-01-27T00:25:01;38.85;;;20.15;;
35442;SDS011;21561;55.654;37.592;2024-01-27T00:27:29;41.75;;;20.48;;
35442;SDS011;21561;55.654;37.592;2024-01-27T00:29:56;43.33;;;19.95;;
35442;SDS011;21561;55.654;37.592;2024-01-27T00:32:23;45.03;;;21.90;;
35442;SDS011;21561;55.654;37.592;2024-01-27T00:34:50;43.20;;;21.38;;
35442;SDS011;21561;55.654;37.592;2024-01-27T00:37:17;42.22;;;19.45;;
35442;SDS011;21561;55.654;37.592;2024-01-27T00:39:44;41.10;;;20.85;;
35442;SDS011;21561;55.654;37.592;2024-01-27T00:42:12;42.33;;;20.92;;
35442;SDS011;21561;55.654;37.592;2024-01-27T00:44:39;39.28;;;19.90;;
35442;SDS011;21561;55.654;37.592;2024-01-27T00:47:06;41.67;;;19.67;;
35442;SDS011;21561;55.654;37.592;2024-01-27T00:49:33;42.35;;;19.58;;
35442;SDS011;21561;55.654;37.592;2024-01-27T00:52:00;42.63;;;20.50;;
35442;SDS011;21561;55.654;37.592;2024-01-27T00:54:26;43.42;;;20.00;;
35442;SDS011;21561;55.654;37.592;2024-01-27T00:56:54;41.67;;;19.40;;
35442;SDS011;21561;55.654;37.592;2024-01-27T00:59:21;38.88;;;19.17;;
35442;SDS011;21561;55.654;37.592;2024-01-27T01:01:47;39.97;;;18.50;;
35442;SDS011;21561;55.654;37.592;2024-01-27T01:04:15;42.28;;;18.77;;
35442;SDS011;21561;55.654;37.592;2024-01-27T01:06:43;43.92;;;18.92;;
35442;SDS011;21561;55.654;37.592;2024-01-27T01:09:10;40.72;;;18.90;;
35442;SDS011;21561;55.654;37.592;2024-01-27T01:11:37;40.42;;;17.95;;
35442;SDS011;21561;55.654;37.592;2024-01-27T01:14:06;38.17;;;16.80;;
35442;SDS011;21561;55.654;37.592;2024-01-27T01:16:32;37.17;;;17.73;;
35442;SDS011;21561;55.654;37.592;2024-01-27T01:18:59;39.08;;;17.50;;
35442;SDS011;21561;55.654;37.592;2024-01-27T01:21:26;36.53;;;16.50;;
35442;SDS011;21561;55.654;37.592;2024-01-27T01:23:55;40.38;;;16.55;;
35442;SDS011;21561;55.654;37.592;2024-01-27T01:26:22;37.65;;;16.58;;
35442;SDS011;21561;55.654;37.592;2024-01-27T01:28:49;34.80;;;15.15;;
35442;SDS011;21561;55.654;37.592;2024-01-27T01:31:15;39.00;;;15.80;;
35442;SDS011;21561;55.654;37.592;2024-01-27T01:33:43;32.42;;;15.50;;
35442;SDS011;21561;55.654;37.592;2024-01-27T01:36:10;34.58;;;15.18;;
35442;SDS011;21561;55.654;37.592;2024-01-27T01:38:37;36.75;;;15.95;;
35442;SDS011;21561;55.654;37.592;2024-01-27T01:41:04;35.03;;;15.38;;
35442;SDS011;21561;55.654;37.592;2024-01-27T01:43:31;37.55;;;16.40;;
35442;SDS011;21561;55.654;37.592;2024-01-27T01:45:58;35.75;;;15.68;;
35442;SDS011;21561;55.654;37.592;2024-01-27T01:48:25;33.15;;;15.05;;
35442;SDS011;21561;55.654;37.592;2024-01-27T01:50:52;35.15;;;14.88;;
35442;SDS011;21561;55.654;37.592;2024-01-27T01:53:20;30.90;;;14.65;;
35442;SDS011;21561;55.654;37.592;2024-01-27T01:55:49;34.20;;;14.52;;
35442;SDS011;21561;55.654;37.592;2024-01-27T01:58:16;33.42;;;15.20;;
35442;SDS011;21561;55.654;37.592;2024-01-27T02:00:43;34.42;;;15.55;;
35442;SDS011;21561;55.654;37.592;2024-01-27T02:03:11;37.03;;;15.10;;
35442;SDS011;21561;55.654;37.592;2024-01-27T02:05:39;33.58;;;14.85;;
35442;SDS011;21561;55.654;37.592;2024-01-27T02:08:07;37.38;;;15.40;;
35442;SDS011;21561;55.654;37.592;2024-01-27T02:10:35;35.78;;;15.70;;
35442;SDS011;21561;55.654;37.592;2024-01-27T02:13:17;33.28;;;14.48;;
35442;SDS011;21561;55.654;37.592;2024-01-27T02:15:50;37.35;;;15.77;;
35442;SDS011;21561;55.654;37.592;2024-01-27T02:18:37;33.33;;;14.90;;
35442;SDS011;21561;55.654;37.592;2024-01-27T02:21:05;32.22;;;13.98;;
35442;SDS011;21561;55.654;37.592;2024-01-27T02:23:32;28.83;;;14.20;;
35442;SDS011;21561;55.654;37.592;2024-01-27T02:25:58;34.67;;;14.10;;
35442;SDS011;21561;55.654;37.592;2024-01-27T02:28:25;31.92;;;13.90;;
35442;SDS011;21561;55.654;37.592;2024-01-27T02:30:52;33.60;;;15.38;;
35442;SDS011;21561;55.654;37.592;2024-01-27T02:33:19;31.27;;;13.80;;
35442;SDS011;21561;55.654;37.592;2024-01-27T02:35:46;30.42;;;13.60;;
35442;SDS011;21561;55.654;37.592;2024-01-27T02:38:14;32.88;;;13.75;;
35442;SDS011;21561;55.654;37.592;2024-01-27T02:40:41;29.45;;;13.52;;
35442;SDS011;21561;55.654;37.592;2024-01-27T02:43:08;32.03;;;13.63;;
35442;SDS011;21561;55.654;37.592;2024-01-27T02:45:35;30.75;;;13.20;;
35442;SDS011;21561;55.654;37.592;2024-01-27T02:48:02;30.55;;;13.55;;
35442;SDS011;21561;55.654;37.592;2024-01-27T02:50:30;34.10;;;13.80;;
35442;SDS011;21561;55.654;37.592;2024-01-27T02:52:57;32.67;;;13.88;;
35442;SDS011;21561;55.654;37.592;2024-01-27T02:55:23;31.40;;;13.38;;
35442;SDS011;21561;55.654;37.592;2024-01-27T02:57:50;28.88;;;12.77;;
35442;SDS011;21561;55.654;37.592;2024-01-27T03:00:17;29.27;;;12.95;;
35442;SDS011;21561;55.654;37.592;2024-01-27T03:02:45;33.03;;;12.95;;
35442;SDS011;21561;55.654;37.592;2024-01-27T03:05:12;31.33;;;13.82;;
35442;SDS011;21561;55.654;37.592;2024-01-27T03:07:40;32.42;;;14.07;;
35442;SDS011;21561;55.654;37.592;2024-01-27T03:10:08;31.27;;;13.80;;
35442;SDS011;21561;55.654;37.592;2024-01-27T03:12:35;29.55;;;12.65;;
35442;SDS011;21561;55.654;37.592;2024-01-27T03:15:02;29.63;;;12.90;;
35442;SDS011;21561;55.654;37.592;2024-01-27T03:17:30;31.55;;;12.82;;
35442;SDS011;21561;55.654;37.592;2024-01-27T03:19:57;31.70;;;12.43;;
35442;SDS011;21561;55.654;37.592;2024-01-27T03:22:25;29.95;;;13.52;;
35442;SDS011;21561;55.654;37.592;2024-01-27T03:24:51;29.23;;;12.35;;
35442;SDS011;21561;55.654;37.592;2024-01-27T03:27:21;31.17;;;13.57;;
35442;SDS011;21561;55.654;37.592;2024-01-27T03:29:48;29.35;;;12.40;;
35442;SDS011;21561;55.654;37.592;2024-01-27T03:32:15;32.53;;;13.68;;
35442;SDS011;21561;55.654;37.592;2024-01-27T03:34:45;30.98;;;13.20;;
35442;SDS011;21561;55.654;37.592;2024-01-27T03:37:13;31.02;;;13.10;;
35442;SDS011;21561;55.654;37.592;2024-01-27T03:39:43;30.27;;;13.80;;
35442;SDS011;21561;55.654;37.592;2024-01-27T03:42:10;29.33;;;13.48;;
35442;SDS011;21561;55.654;37.592;2024-01-27T03:44:37;30.88;;;13.98;;
35442;SDS011;21561;55.654;37.592;2024-01-27T03:47:04;25.88;;;12.27;;
35442;SDS011;21561;55.654;37.592;2024-01-27T03:49:31;32.20;;;12.95;;
35442;SDS011;21561;55.654;37.592;2024-01-27T03:51:58;30.83;;;13.52;;
35442;SDS011;21561;55.654;37.592;2024-01-27T03:54:26;33.50;;;13.63;;
35442;SDS011;21561;55.654;37.592;2024-01-27T03:56:54;28.42;;;12.23;;
35442;SDS011;21561;55.654;37.592;2024-01-27T03:59:21;28.10;;;12.48;;
35442;SDS011;21561;55.654;37.592;2024-01-27T04:01:48;30.80;;;13.88;;
35442;SDS011;21561;55.654;37.592;2024-01-27T04:04:15;29.00;;;13.27;;
35442;SDS011;21561;55.654;37.592;2024-01-27T04:06:42;34.35;;;15.07;;
35442;SDS011;21561;55.654;37.592;2024-01-27T04:09:09;30.33;;;13.75;;
35442;SDS011;21561;55.654;37.592;2024-01-27T04:11:37;32.10;;;13.55;;
35442;SDS011;21561;55.654;37.592;2024-01-27T04:14:05;28.80;;;13.05;;
35442;SDS011;21561;55.654;37.592;2024-01-27T04:16:32;28.88;;;13.55;;
35442;SDS011;21561;55.654;37.592;2024-01-27T04:19:00;29.77;;;12.30;;
35442;SDS011;21561;55.654;37.592;2024-01-27T04:21:27;28.27;;;12.90;;
35442;SDS011;21561;55.654;37.592;2024-01-27T04:23:54;28.88;;;12.43;;
35442;SDS011;21561;55.654;37.592;2024-01-27T04:26:21;28.70;;;12.80;;
35442;SDS011;21561;55.654;37.592;2024-01-27T04:28:48;28.35;;;12.48;;
35442;SDS011;21561;55.654;37.592;2024-01-27T04:31:15;28.85;;;11.50;;
35442;SDS011;21561;55.654;37.592;2024-01-27T04:33:42;27.17;;;11.68;;
35442;SDS011;21561;55.654;37.592;2024-01-27T04:36:09;29.90;;;11.98;;
35442;SDS011;21561;55.654;37.592;2024-01-27T04:38:36;26.10;;;11.70;;
35442;SDS011;21561;55.654;37.592;2024-01-27T04:41:03;30.00;;;12.20;;
35442;SDS011;21561;55.654;37.592;2024-01-27T04:43:30;28.23;;;11.50;;
35442;SDS011;21561;55.654;37.592;2024-01-27T04:45:57;29.20;;;11.43;;
35442;SDS011;21561;55.654;37.592;2024-01-27T04:48:24;25.27;;;11.05;;
35442;SDS011;21561;55.654;37.592;2024-01-27T04:50:51;27.00;;;12.30;;
35442;SDS011;21561;55.654;37.592;2024-01-27T04:53:18;26.63;;;10.25;;
35442;SDS011;21561;55.654;37.592;2024-01-27T04:55:45;26.83;;;11.38;;
35442;SDS011;21561;55.654;37.592;2024-01-27T04:58:12;26.80;;;11.07;;
35442;SDS011;21561;55.654;37.592;2024-01-27T05:00:39;25.67;;;10.25;;
35442;SDS011;21561;55.654;37.592;2024-01-27T05:03:06;24.40;;;10.65;;
35442;SDS011;21561;55.654;37.592;2024-01-27T05:05:37;22.55;;;8.88;;
35442;SDS011;21561;55.654;37.592;2024-01-27T05:08:04;28.65;;;11.18;;
35442;SDS011;21561;55.654;37.592;2024-01-27T05:10:31;25.52;;;9.98;;
35442;SDS011;21561;55.654;37.592;2024-01-27T05:12:58;25.38;;;10.00;;
35442;SDS011;21561;55.654;37.592;2024-01-27T05:15:25;27.00;;;9.75;;
35442;SDS011;21561;55.654;37.592;2024-01-27T05:17:53;28.25;;;10.50;;
35442;SDS011;21561;55.654;37.592;2024-01-27T05:20:20;26.48;;;11.60;;
35442;SDS011;21561;55.654;37.592;2024-01-27T05:22:47;26.77;;;10.40;;
35442;SDS011;21561;55.654;37.592;2024-01-27T05:25:14;26.35;;;10.07;;
35442;SDS011;21561;55.654;37.592;2024-01-27T05:27:43;24.63;;;9.50;;
35442;SDS011;21561;55.654;37.592;2024-01-27T05:30:10;25.00;;;9.82;;
35442;SDS011;21561;55.654;37.592;2024-01-27T05:32:38;24.02;;;9.90;;
35442;SDS011;21561;55.654;37.592;2024-01-27T05:35:05;25.08;;;10.05;;
35442;SDS011;21561;55.654;37.592;2024-01-27T05:37:32;25.88;;;9.57;;
35442;SDS011;21561;55.654;37.592;2024-01-27T05:39:59;24.67;;;9.73;;
35442;SDS011;21561;55.654;37.592;2024-01-27T05:42:26;22.55;;;9.00;;
35442;SDS011;21561;55.654;37.592;2024-01-27T05:44:53;25.77;;;9.65;;
35442;SDS011;21561;55.654;37.592;2024-01-27T05:47:20;24.52;;;9.85;;
35442;SDS011;21561;55.654;37.592;2024-01-27T05:49:47;26.15;;;9.10;;
35442;SDS011;21561;55.654;37.592;2024-01-27T05:52:14;23.33;;;8.88;;
35442;SDS011;21561;55.654;37.592;2024-01-27T05:54:51;24.30;;;9.13;;
35442;SDS011;21561;55.654;37.592;2024-01-27T05:57:18;23.10;;;8.85;;
35442;SDS011;21561;55.654;37.592;2024-01-27T05:59:46;22.60;;;8.40;;
35442;SDS011;21561;55.654;37.592;2024-01-27T06:02:13;22.05;;;7.93;;
35442;SDS011;21561;55.654;37.592;2024-01-27T06:04:40;22.88;;;8.45;;
35442;SDS011;21561;55.654;37.592;2024-01-27T06:07:07;23.13;;;8.27;;
35442;SDS011;21561;55.654;37.592;2024-01-27T06:09:36;24.73;;;8.13;;
35442;SDS011;21561;55.654;37.592;2024-01-27T06:12:04;23.27;;;7.82;;
35442;SDS011;21561;55.654;37.592;2024-01-27T06:14:31;19.58;;;7.43;;
35442;SDS011;21561;55.654;37.592;2024-01-27T06:16:58;19.38;;;7.13;;
35442;SDS011;21561;55.654;37.592;2024-01-27T06:19:26;21.70;;;8.15;;
35442;SDS011;21561;55.654;37.592;2024-01-27T06:21:53;26.33;;;8.70;;
35442;SDS011;21561;55.654;37.592;2024-01-27T06:24:20;21.02;;;7.88;;
35442;SDS011;21561;55.654;37.592;2024-01-27T06:26:48;23.08;;;8.98;;
35442;SDS011;21561;55.654;37.592;2024-01-27T06:29:15;24.33;;;8.93;;
35442;SDS011;21561;55.654;37.592;2024-01-27T06:31:42;25.95;;;9.95;;
35442;SDS011;21561;55.654;37.592;2024-01-27T06:34:09;25.98;;;10.05;;
35442;SDS011;21561;55.654;37.592;2024-01-27T06:36:36;24.13;;;9.73;;
35442;SDS011;21561;55.654;37.592;2024-01-27T06:39:03;26.30;;;10.40;;
35442;SDS011;21561;55.654;37.592;2024-01-27T06:41:30;25.15;;;10.63;;
35442;SDS011;21561;55.654;37.592;2024-01-27T06:43:57;25.98;;;10.85;;
35442;SDS011;21561;55.654;37.592;2024-01-27T06:46:24;23.67;;;10.68;;
35442;SDS011;21561;55.654;37.592;2024-01-27T06:48:51;27.30;;;11.05;;
35442;SDS011;21561;55.654;37.592;2024-01-27T06:51:18;26.77;;;12.05;;
35442;SDS011;21561;55.654;37.592;2024-01-27T06:53:45;26.02;;;10.50;;
35442;SDS011;21561;55.654;37.592;2024-01-27T06:56:15;27.95;;;11.27;;
35442;SDS011;21561;55.654;37.592;2024-01-27T06:58:42;30.35;;;12.80;;
35442;SDS011;21561;55.654;37.592;2024-01-27T07:01:08;30.17;;;11.65;;
35442;SDS011;21561;55.654;37.592;2024-01-27T07:03:36;31.25;;;11.90;;
35442;SDS011;21561;55.654;37.592;2024-01-27T07:06:03;27.20;;;11.82;;
35442;SDS011;21561;55.654;37.592;2024-01-27T07:08:31;29.35;;;12.75;;
35442;SDS011;21561;55.654;37.592;2024-01-27T07:11:03;33.47;;;12.70;;
35442;SDS011;21561;55.654;37.592;2024-01-27T07:13:30;33.65;;;12.68;;
35442;SDS011;21561;55.654;37.592;2024-01-27T07:15:57;32.38;;;13.88;;
35442;SDS011;21561;55.654;37.592;2024-01-27T07:18:24;32.10;;;12.98;;
35442;SDS011;21561;55.654;37.592;2024-01-27T07:20:52;30.63;;;12.65;;
35442;SDS011;21561;55.654;37.592;2024-01-27T07:23:21;30.75;;;13.20;;
35442;SDS011;21561;55.654;37.592;2024-01-27T07:25:48;32.65;;;12.18;;
35442;SDS011;21561;55.654;37.592;2024-01-27T07:28:15;28.23;;;12.45;;
35442;SDS011;21561;55.654;37.592;2024-01-27T07:30:45;30.27;;;13.70;;
35442;SDS011;21561;55.654;37.592;2024-01-27T07:33:12;28.90;;;12.35;;
35442;SDS011;21561;55.654;37.592;2024-01-27T07:35:40;31.17;;;12.93;;
35442;SDS011;21561;55.654;37.592;2024-01-27T07:38:07;29.40;;;12.82;;
35442;SDS011;21561;55.654;37.592;2024-01-27T07:40:35;32.97;;;12.68;;
35442;SDS011;21561;55.654;37.592;2024-01-27T07:43:02;31.33;;;12.10;;
35442;SDS011;21561;55.654;37.592;2024-01-27T07:45:29;30.35;;;12.85;;
35442;SDS011;21561;55.654;37.592;2024-01-27T07:47:56;33.60;;;12.35;;
35442;SDS011;21561;55.654;37.592;2024-01-27T07:50:27;33.28;;;13.48;;
35442;SDS011;21561;55.654;37.592;2024-01-27T07:52:54;38.38;;;12.88;;
35442;SDS011;21561;55.654;37.592;2024-01-27T07:55:21;31.52;;;13.48;;
35442;SDS011;21561;55.654;37.592;2024-01-27T07:57:48;31.88;;;13.73;;
35442;SDS011;21561;55.654;37.592;2024-01-27T08:00:15;34.00;;;13.90;;
35442;SDS011;21561;55.654;37.592;2024-01-27T08:02:42;31.50;;;13.10;;
35442;SDS011;21561;55.654;37.592;2024-01-27T08:05:09;32.05;;;14.48;;
35442;SDS011;21561;55.654;37.592;2024-01-27T08:07:36;30.20;;;13.30;;
35442;SDS011;21561;55.654;37.592;2024-01-27T08:10:03;36.53;;;14.38;;
35442;SDS011;21561;55.654;37.592;2024-01-27T08:12:31;30.40;;;14.02;;
35442;SDS011;21561;55.654;37.592;2024-01-27T08:14:58;33.10;;;13.57;;
35442;SDS011;21561;55.654;37.592;2024-01-27T08:17:25;32.10;;;14.18;;
35442;SDS011;21561;55.654;37.592;2024-01-27T08:19:52;33.17;;;14.30;;
35442;SDS011;21561;55.654;37.592;2024-01-27T08:22:20;37.03;;;15.02;;
35442;SDS011;21561;55.654;37.592;2024-01-27T08:24:47;32.78;;;13.77;;
35442;SDS011;21561;55.654;37.592;2024-01-27T08:27:13;33.60;;;14.38;;
35442;SDS011;21561;55.654;37.592;2024-01-27T08:29:40;33.75;;;13.73;;
35442;SDS011;21561;55.654;37.592;2024-01-27T08:32:07;31.90;;;14.25;;
35442;SDS011;21561;55.654;37.592;2024-01-27T08:34:36;34.15;;;14.35;;
35442;SDS011;21561;55.654;37.592;2024-01-27T08:37:13;35.70;;;15.48;;
35442;SDS011;21561;55.654;37.592;2024-01-27T08:39:41;31.60;;;14.02;;
35442;SDS011;21561;55.654;37.592;2024-01-27T08:42:08;33.70;;;14.27;;
35442;SDS011;21561;55.654;37.592;2024-01-27T08:44:36;33.95;;;14.30;;
35442;SDS011;21561;55.654;37.592;2024-01-27T08:47:03;37.50;;;14.63;;
35442;SDS011;21561;55.654;37.592;2024-01-27T08:49:33;34.15;;;14.57;;
35442;SDS011;21561;55.654;37.592;2024-01-27T08:52:00;34.33;;;15.05;;
35442;SDS011;21561;55.654;37.592;2024-01-27T08:54:27;32.38;;;14.13;;
35442;SDS011;21561;55.654;37.592;2024-01-27T08:56:54;32.85;;;13.93;;
35442;SDS011;21561;55.654;37.592;2024-01-27T08:59:21;35.40;;;14.80;;
35442;SDS011;21561;55.654;37.592;2024-01-27T09:01:48;35.83;;;14.38;;
35442;SDS011;21561;55.654;37.592;2024-01-27T09:04:15;34.83;;;15.25;;
35442;SDS011;21561;55.654;37.592;2024-01-27T09:06:42;33.30;;;15.43;;
35442;SDS011;21561;55.654;37.592;2024-01-27T09:09:09;35.33;;;14.05;;
35442;SDS011;21561;55.654;37.592;2024-01-27T09:11:36;35.03;;;14.23;;
35442;SDS011;21561;55.654;37.592;2024-01-27T09:14:03;32.60;;;13.07;;
35442;SDS011;21561;55.654;37.592;2024-01-27T09:16:31;35.03;;;13.27;;
35442;SDS011;21561;55.654;37.592;2024-01-27T09:18:58;33.25;;;13.57;;
35442;SDS011;21561;55.654;37.592;2024-01-27T09:21:25;33.80;;;14.38;;
35442;SDS011;21561;55.654;37.592;2024-01-27T09:23:55;31.48;;;12.75;;
35442;SDS011;21561;55.654;37.592;2024-01-27T09:26:22;32.85;;;12.93;;
35442;SDS011;21561;55.654;37.592;2024-01-27T09:28:49;35.05;;;13.98;;
35442;SDS011;21561;55.654;37.592;2024-01-27T09:31:22;33.70;;;13.52;;
35442;SDS011;21561;55.654;37.592;2024-01-27T09:33:50;35.22;;;13.50;;
35442;SDS011;21561;55.654;37.592;2024-01-27T09:36:19;31.98;;;13.93;;
35442;SDS011;21561;55.654;37.592;2024-01-27T09:38:47;33.42;;;13.48;;
35442;SDS011;21561;55.654;37.592;2024-01-27T09:41:14;34.50;;;13.68;;
35442;SDS011;21561;55.654;37.592;2024-01-27T09:43:42;37.42;;;14.43;;
35442;SDS011;21561;55.654;37.592;2024-01-27T09:46:11;37.17;;;14.50;;
35442;SDS011;21561;55.654;37.592;2024-01-27T09:48:38;34.95;;;14.73;;
35442;SDS011;21561;55.654;37.592;2024-01-27T09:51:07;31.83;;;14.15;;
35442;SDS011;21561;55.654;37.592;2024-01-27T09:53:35;35.47;;;13.52;;
35442;SDS011;21561;55.654;37.592;2024-01-27T09:56:03;33.08;;;13.15;;
35442;SDS011;21561;55.654;37.592;2024-01-27T09:58:30;38.72;;;13.73;;
35442;SDS011;21561;55.654;37.592;2024-01-27T10:00:58;35.33;;;13.68;;
35442;SDS011;21561;55.654;37.592;2024-01-27T10:03:28;35.03;;;13.85;;
35442;SDS011;21561;55.654;37.592;2024-01-27T10:05:56;31.65;;;13.38;;
35442;SDS011;21561;55.654;37.592;2024-01-27T10:08:24;34.22;;;13.85;;
35442;SDS011;21561;55.654;37.592;2024-01-27T10:10:54;33.05;;;13.48;;
35442;SDS011;21561;55.654;37.592;2024-01-27T10:13:23;33.00;;;14.25;;
35442;SDS011;21561;55.654;37.592;2024-01-27T10:16:06;33.78;;;13.82;;
35442;SDS011;21561;55.654;37.592;2024-01-27T10:18:34;32.05;;;12.85;;
35442;SDS011;21561;55.654;37.592;2024-01-27T10:21:12;34.25;;;13.32;;
35442;SDS011;21561;55.654;37.592;2024-01-27T10:23:40;35.78;;;13.88;;
35442;SDS011;21561;55.654;37.592;2024-01-27T10:26:10;34.78;;;14.20;;
35442;SDS011;21561;55.654;37.592;2024-01-27T10:28:37;32.70;;;14.40;;
35442;SDS011;21561;55.654;37.592;2024-01-27T10:31:11;33.92;;;14.18;;
35442;SDS011;21561;55.654;37.592;2024-01-27T10:33:39;36.58;;;14.40;;
35442;SDS011;21561;55.654;37.592;2024-01-27T10:36:06;29.17;;;13.32;;
35442;SDS011;21561;55.654;37.592;2024-01-27T10:38:39;30.17;;;12.32;;
35442;SDS011;21561;55.654;37.592;2024-01-27T10:41:09;31.60;;;14.35;;
35442;SDS011;21561;55.654;37.592;2024-01-27T10:43:37;35.30;;;13.35;;
35442;SDS011;21561;55.654;37.592;2024-01-27T10:46:07;32.63;;;13.25;;
35442;SDS011;21561;55.654;37.592;2024-01-27T10:48:35;32.15;;;11.93;;
35442;SDS011;21561;55.654;37.592;2024-01-27T10:51:09;32.72;;;12.10;;
35442;SDS011;21561;55.654;37.592;2024-01-27T10:53:37;32.03;;;11.27;;
35442;SDS011;21561;55.654;37.592;2024-01-27T10:56:06;30.85;;;12.30;;
35442;SDS011;21561;55.654;37.592;2024-01-27T10:58:37;32.78;;;11.35;;
35442;SDS011;21561;55.654;37.592;2024-01-27T11:01:10;32.60;;;12.95;;
35442;SDS011;21561;55.654;37.592;2024-01-27T11:03:41;28.92;;;11.88;;
35442;SDS011;21561;55.654;37.592;2024-01-27T11:06:09;34.50;;;12.60;;
35442;SDS011;21561;55.654;37.592;2024-01-27T11:08:39;31.20;;;12.80;;
35442;SDS011;21561;55.654;37.592;2024-01-27T11:11:10;33.03;;;13.33;;
35442;SDS011;21561;55.654;37.592;2024-01-27T11:13:38;32.33;;;12.50;;
35442;SDS011;21561;55.654;37.592;2024-01-27T11:16:07;29.95;;;13.05;;
35442;SDS011;21561;55.654;37.592;2024-01-27T11:18:42;31.50;;;13.05;;
35442;SDS011;21561;55.654;37.592;2024-01-27T11:21:16;33.17;;;13.27;;
35442;SDS011;21561;55.654;37.592;2024-01-27T11:23:44;33.25;;;12.30;;
35442;SDS011;21561;55.654;37.592;2024-01-27T11:26:22;30.27;;;12.82;;
35442;SDS011;21561;55.654;37.592;2024-01-27T11:28:52;36.65;;;13.32;;
35442;SDS011;21561;55.654;37.592;2024-01-27T11:31:19;33.03;;;13.73;;
35442;SDS011;21561;55.654;37.592;2024-01-27T11:33:47;36.17;;;13.38;;
35442;SDS011;21561;55.654;37.592;2024-01-27T11:36:21;32.67;;;13.73;;
35442;SDS011;21561;55.654;37.592;2024-01-27T11:38:50;34.17;;;12.70;;
35442;SDS011;21561;55.654;37.592;2024-01-27T11:41:25;27.45;;;11.60;;
35442;SDS011;21561;55.654;37.592;2024-01-27T11:43:56;30.48;;;12.18;;
35442;SDS011;21561;55.654;37.592;2024-01-27T11:46:26;28.25;;;10.25;;
35442;SDS011;21561;55.654;37.592;2024-01-27T11:48:53;26.15;;;11.05;;
35442;SDS011;21561;55.654;37.592;2024-01-27T11:51:20;29.60;;;10.57;;
35442;SDS011;21561;55.654;37.592;2024-01-27T11:53:50;26.75;;;10.85;;
35442;SDS011;21561;55.654;37.592;2024-01-27T11:56:17;28.58;;;9.65;;
35442;SDS011;21561;55.654;37.592;2024-01-27T11:58:48;27.85;;;11.27;;
35442;SDS011;21561;55.654;37.592;2024-01-27T12:03:43;28.92;;;11.05;;
35442;SDS011;21561;55.654;37.592;2024-01-27T12:06:12;29.67;;;11.57;;
35442;SDS011;21561;55.654;37.592;2024-01-27T12:08:41;30.27;;;12.60;;
35442;SDS011;21561;55.654;37.592;2024-01-27T12:11:15;28.42;;;11.40;;
35442;SDS011;21561;55.654;37.592;2024-01-27T12:13:49;29.52;;;12.40;;
35442;SDS011;21561;55.654;37.592;2024-01-27T12:16:16;27.85;;;11.30;;
35442;SDS011;21561;55.654;37.592;2024-01-27T12:18:46;35.05;;;13.98;;
35442;SDS011;21561;55.654;37.592;2024-01-27T12:21:18;25.15;;;10.32;;
35442;SDS011;21561;55.654;37.592;2024-01-27T12:23:52;28.05;;;11.20;;
35442;SDS011;21561;55.654;37.592;2024-01-27T12:26:21;32.58;;;11.93;;
35442;SDS011;21561;55.654;37.592;2024-01-27T12:28:53;29.60;;;12.07;;
35442;SDS011;21561;55.654;37.592;2024-01-27T12:31:22;31.63;;;11.73;;
35442;SDS011;21561;55.654;37.592;2024-01-27T12:33:53;27.45;;;11.20;;
35442;SDS011;21561;55.654;37.592;2024-01-27T12:36:22;31.60;;;11.90;;
35442;SDS011;21561;55.654;37.592;2024-01-27T12:39:00;31.45;;;12.48;;
35442;SDS011;21561;55.654;37.592;2024-01-27T12:41:31;30.42;;;13.32;;
35442;SDS011;21561;55.654;37.592;2024-01-27T12:44:00;30.70;;;13.10;;
35442;SDS011;21561;55.654;37.592;2024-01-27T12:46:28;33.28;;;13.18;;
35442;SDS011;21561;55.654;37.592;2024-01-27T12:48:55;30.40;;;12.70;;
35442;SDS011;21561;55.654;37.592;2024-01-27T12:51:22;29.73;;;12.23;;
35442;SDS011;21561;55.654;37.592;2024-01-27T12:53:51;30.80;;;13.60;;
35442;SDS011;21561;55.654;37.592;2024-01-27T12:56:18;33.05;;;13.10;;
35442;SDS011;21561;55.654;37.592;2024-01-27T12:58:45;33.38;;;13.18;;
35442;SDS011;21561;55.654;37.592;2024-01-27T13:01:12;31.95;;;13.10;;
35442;SDS011;21561;55.654;37.592;2024-01-27T13:03:39;33.50;;;13.60;;
35442;SDS011;21561;55.654;37.592;2024-01-27T13:08:39;31.50;;;12.45;;
35442;SDS011;21561;55.654;37.592;2024-01-27T13:11:08;30.55;;;12.10;;
35442;SDS011;21561;55.654;37.592;2024-01-27T13:13:35;30.48;;;12.55;;
35442;SDS011;21561;55.654;37.592;2024-01-27T13:16:02;32.78;;;12.50;;
35442;SDS011;21561;55.654;37.592;2024-01-27T13:18:29;32.33;;;12.55;;
35442;SDS011;21561;55.654;37.592;2024-01-27T13:20:56;29.20;;;12.82;;
35442;SDS011;21561;55.654;37.592;2024-01-27T13:23:23;34.05;;;13.32;;
35442;SDS011;21561;55.654;37.592;2024-01-27T13:25:50;30.20;;;12.48;;
35442;SDS011;21561;55.654;37.592;2024-01-27T13:28:36;32.15;;;12.60;;
35442;SDS011;21561;55.654;37.592;2024-01-27T13:31:03;30.27;;;13.18;;
35442;SDS011;21561;55.654;37.592;2024-01-27T13:33:31;33.55;;;14.15;;
35442;SDS011;21561;55.654;37.592;2024-01-27T13:35:59;37.55;;;14.95;;
35442;SDS011;21561;55.654;37.592;2024-01-27T13:38:26;35.17;;;14.32;;
35442;SDS011;21561;55.654;37.592;2024-01-27T13:40:54;33.17;;;15.02;;
35442;SDS011;21561;55.654;37.592;2024-01-27T13:43:20;38.28;;;15.75;;
35442;SDS011;21561;55.654;37.592;2024-01-27T13:45:47;35.30;;;15.52;;
35442;SDS011;21561;55.654;37.592;2024-01-27T13:48:15;33.20;;;14.55;;
35442;SDS011;21561;55.654;37.592;2024-01-27T13:50:42;36.75;;;15.43;;
35442;SDS011;21561;55.654;37.592;2024-01-27T13:53:09;39.40;;;16.00;;
35442;SDS011;21561;55.654;37.592;2024-01-27T13:55:36;40.45;;;15.55;;
35442;SDS011;21561;55.654;37.592;2024-01-27T13:58:04;35.35;;;15.40;;
35442;SDS011;21561;55.654;37.592;2024-01-27T14:00:32;36.30;;;15.45;;
35442;SDS011;21561;55.654;37.592;2024-01-27T14:03:01;36.78;;;15.50;;
35442;SDS011;21561;55.654;37.592;2024-01-27T14:05:29;35.40;;;15.23;;
35442;SDS011;21561;55.654;37.592;2024-01-27T14:07:56;40.53;;;15.68;;
35442;SDS011;21561;55.654;37.592;2024-01-27T14:10:23;41.78;;;16.52;;
35442;SDS011;21561;55.654;37.592;2024-01-27T14:12:51;36.65;;;16.30;;
35442;SDS011;21561;55.654;37.592;2024-01-27T14:15:18;38.00;;;16.27;;
35442;SDS011;21561;55.654;37.592;2024-01-27T14:17:45;39.65;;;16.60;;
35442;SDS011;21561;55.654;37.592;2024-01-27T14:20:12;38.95;;;15.15;;